METAR stanice u blizini

 

LYBE - Beograd / Surčin, Srbija
Ažurirano: 29/05/2022 06:00
Partly Cloudy
Partly Cloudy
 Pravac vetra Z
Vetar: Z 7 km/h
Temperatura: 12°C
Tačka rose: 12°C
Vlažnost: 100%
Pritisak: 1013 hPa
Oblaci: Partly Cloudy
Vidljivost: 10 km
Cloud details: Partly Cloudy 183 m
2022/05/29 04:00 LYBE 290400Z 26004KT 9999 SCT006 12/12 Q1013 NOSIG
LYBT - Beograd / Batajnica, Srbija
Ažurirano: 29/05/2022 06:00
Partly Cloudy
Partly Cloudy
 Pravac vetra JZ
Vetar: JZ 2 km/h
Temperatura: 12°C
Tačka rose: 12°C
Vlažnost: 100%
Pritisak: 1012 hPa
Oblaci: Partly Cloudy
Vidljivost: 6 km
2022/05/29 04:00 LYBT 290400Z 23001KT 6000 NSC 12/12 Q1012 NOSIG
LYVR - Vršac, Srbija
Ažurirano: 29/05/2022 06:00
Partly Cloudy
Partly Cloudy
 Pravac vetra varies
Vetar: varies 6 km/h
Temperatura: 12°C
Tačka rose: 12°C
Vlažnost: 100%
Pritisak: 1012 hPa
Oblaci: Partly Cloudy
Vidljivost: 9 km
2022/05/29 04:00 LYVR 290400Z AUTO VRB03KT 9000 NSC 12/12 Q1012
 
LYKV - Lađevci, Srbija
Ažurirano: 29/05/2022 06:00
Light thunderstorm, Padavine, Pretežno oblačno
Light thunderstorm, Padavine, Pretežno oblačno
 Pravac vetra Z
Vetar: Z 7 km/h
Temperatura: 12°C
Tačka rose: 12°C
Vlažnost: 100%
Pritisak: 1013 hPa
Pregled: Light thunderstorm, Padavine
Oblaci: Mostly Cloudy
Vidljivost: 10 km
Cloud details: Few Clouds 457 m
Partly Cloudy 914 m
Mostly Cloudy 1006 m
2022/05/29 04:00 LYKV 290400Z 26004KT 240V300 9999 -TSRA FEW015 SCT030CB BKN033 12/12 Q1013 NOSIG
LYNI - Niš, Srbija
Ažurirano: 29/05/2022 06:00
Mostly Cloudy
Mostly Cloudy
 Pravac vetra SSZ
Vetar: SSZ 17 km/h
Temperatura: 12°C
Tačka rose: 9°C
Vlažnost: 82%
Pritisak: 1011 hPa
Oblaci: Mostly Cloudy
Vidljivost: 10 km
Cloud details: Few Clouds 457 m
Mostly Cloudy 823 m
2022/05/29 04:00 LYNI 290400Z 33009KT 9999 FEW015 BKN027 12/09 Q1011 NOSIG
BKPR - Priština, Srbija
Ažurirano: 29/05/2022 06:00
Mostly Cloudy
Mostly Cloudy
 Pravac vetra SSI
Vetar: SSI 22 km/h
Temperatura: 12°C
Tačka rose: 10°C
Vlažnost: 88%
Pritisak: 1010 hPa
Oblaci: Mostly Cloudy
Vidljivost: 10 km
Cloud details: Partly Cloudy 1219 m
Mostly Cloudy 2438 m
2022/05/29 04:00 BKPR 290400Z 02012KT 9999 SCT040 BKN080 12/10 Q1010 NOSIG
 
LHPP - Pecs / Pogany, Hungary
Ažurirano: 29/05/2022 06:13
Slaba kiša, Thunderstorm
Slaba kiša, Thunderstorm
 Pravac vetra SSI
Vetar: SSI 22 km/h
Temperatura: 10°C
Osećaj hladnoće: 7°C
Tačka rose: 9°C
Vlažnost: 94%
Pritisak: 1013 hPa
Pregled: Light Rain
Oblaci: Thunderstorm
Vidljivost: 10 km
Cloud details: Few Clouds 1341 m
Oblačno 1707 m
2022/05/29 04:13 LHPP 290413Z AUTO 02012KT 9999 -RA FEW044 OVC056 //////TCU 10/09 Q1013 RERA
LHUD - Szeged, Hungary
Ažurirano: 04/07/2019 01:45
NOT Current
Vedro
Vedro
 Pravac vetra S
Vetar: S 7 km/h
Temperatura: 18°C
Tačka rose: 13°C
Vlažnost: 73%
Pritisak: 1019 hPa
Pregled: Vedro
Vidljivost: greater than 10 km
2019/07/03 23:45 LHUD 032345Z 35004KT CAVOK 18/13 Q1019
LRTR - Timisoara, Romania
Ažurirano: 29/05/2022 06:00
Partly Cloudy
Partly Cloudy
 Pravac vetra SSZ
Vetar: SSZ 6 km/h
Temperatura: 11°C
Tačka rose: 11°C
Vlažnost: 100%
Pritisak: 1012 hPa
Oblaci: Partly Cloudy
Vidljivost: 6 km
2022/05/29 04:00 LRTR 290400Z 34003KT 6000 NSC 11/11 Q1012
 
LRCV - Craiova, Romania
Ažurirano: 29/05/2022 06:00
Mist, Oblačno
Mist, Oblačno
 Pravac vetra SI
Vetar: SI 11 km/h
Temperatura: 16°C
Tačka rose: 15°C
Vlažnost: 94%
Pritisak: 1010 hPa
Pregled: Mist
Oblaci: Oblačno
Vidljivost: 5 km
Cloud details: Partly Cloudy 61 m
Oblačno 152 m
2022/05/29 04:00 LRCV 290400Z 05006KT 020V080 5000 BR SCT002 OVC005 16/15 Q1010
LBSF - Sofia, Bulgaria
Ažurirano: 29/05/2022 06:00
Partly Cloudy
Partly Cloudy
 Pravac vetra JI
Vetar: JI 13 km/h
Temperatura: 15°C
Tačka rose: 13°C
Vlažnost: 88%
Pritisak: 1010 hPa
Oblaci: Partly Cloudy
Vidljivost: 10 km
Cloud details: Few Clouds 518 m
Partly Cloudy 2713 m
2022/05/29 04:00 LBSF 290400Z 14007KT 9999 FEW017 SCT089 15/13 Q1010 NOSIG
LWSK - Skoplje, Makedonija
Ažurirano: 29/05/2022 06:00
Few Clouds
Few Clouds
 Pravac vetra SI
Vetar: SI 6 km/h
Temperatura: 16°C
Tačka rose: 13°C
Vlažnost: 83%
Pritisak: 1009 hPa
Oblaci: Few Clouds
Vidljivost: 10 km
Cloud details: Few Clouds 305 m
2022/05/29 04:00 LWSK 290400Z 04003KT 9999 FEW010 16/13 Q1009 NOSIG
 
LYPG - Podgorica, Crna Gora
Ažurirano: 29/05/2022 06:00
Few Clouds
Few Clouds
 Pravac vetra SSI
Vetar: SSI 6 km/h
Temperatura: 21°C
Tačka rose: 12°C
Vlažnost: 57%
Pritisak: 1004 hPa
Oblaci: Few Clouds
Vidljivost: 10 km
Cloud details: Few Clouds 1219 m
2022/05/29 04:00 LYPG 290400Z 02003KT 250V060 9999 FEW040 21/12 Q1004 NOSIG
LQSA - Sarajevo, Bosna i Hercegovina
Ažurirano: 29/05/2022 06:00
Oblačno
Oblačno
 Pravac vetra ZSZ
Vetar: ZSZ 9 km/h
Temperatura: 11°C
Tačka rose: 10°C
Vlažnost: 94%
Pritisak: 1011 hPa
Oblaci: Oblačno
Vidljivost: 10 km
Cloud details: Partly Cloudy 762 m
Oblačno 1067 m
2022/05/29 04:00 LQSA 290400Z 30005KT 9999 SCT025 OVC035 11/10 Q1011
LDOS - Osijek, Hrvatksa
Ažurirano: 29/05/2022 06:00
Few Clouds
Few Clouds
 Pravac vetra SSZ
Vetar: SSZ 7 km/h
Temperatura: 13°C
Tačka rose: 12°C
Vlažnost: 94%
Pritisak: 1013 hPa
Oblaci: Few Clouds
Vidljivost: 10 km
Cloud details: Few Clouds 1311 m
2022/05/29 04:00 LDOS 290400Z 34004KT 9999 FEW043 13/12 Q1013